Haukur — OZ2119 — position and weather

sailwx.info

Track history (hours):
 
Tides and Currents Weather Stations Pressure Air Temp Water Temp Dewpoint Dewpoint Depression Visibility Wind Speed Wind Dir Waves Ship Positions

Haukur

Last reported at 2015-Jul-26 06:25 UTC. Time now 2015-Aug-05 10:29 UTC.
Position N 58°14' E 005°47'.
Warning: this ship's position is 10 days out of date.

Length 75 m; draft 5.6 m.

Type: Cargo ship. MMSI: 231812000.

Date/timePositionNaut miles runAvg speedWind from/ knotsBaromVisibWave heightAir tempDewpointWater temp
2015-Jul-26 06:25N 58°14' E 005°47'5 5.7
2015-Jul-26 05:33N 58°12' E 005°56'6 5.6
2015-Jul-26 04:33N 58°10' E 006°06'6 6.1
2015-Jul-26 03:33N 58°07' E 006°16'7 6.7
2015-Jul-26 02:32N 58°04' E 006°27'121 8.5
2015-Jul-25 12:20N 57°49' E 010°14'6 8.3
2015-Jul-25 11:33N 57°49' E 010°26'8 8.3
2015-Jul-25 10:33N 57°49' E 010°42'7 7.2
2015-Jul-25 09:33N 57°42' E 010°47'8 8.5
2015-Jul-25 08:33N 57°34' E 010°45'9 9.0
2015-Jul-25 07:33N 57°25' E 010°44'1010.1
2015-Jul-25 06:33N 57°15' E 010°43'11 9.8
2015-Jul-25 05:29N 57°05' E 010°49'33 8.3
2015-Jul-25 01:32N 56°33' E 011°05'27 8.9
2015-Jul-24 22:33N 56°06' E 011°07'18 8.4
2015-Jul-24 20:26N 55°51' E 010°51'8 8.9
2015-Jul-24 19:33N 55°46' E 010°40'9 8.9
2015-Jul-24 18:32N 55°43' E 010°25'  
2015-Jul-20 22:07N 56°08' E 011°38'710.7
2015-Jul-20 21:31N 56°09' E 011°49'1010.2
2015-Jul-20 20:33N 56°11' E 012°07'9 9.5
2015-Jul-20 19:33N 56°11' E 012°24'9 9.5
2015-Jul-20 18:34N 56°05' E 012°37'10 9.6
2015-Jul-20 17:34N 55°56' E 012°44'10 9.7
2015-Jul-20 16:33N 55°46' E 012°42'10 9.6
2015-Jul-20 15:34N 55°37' E 012°42'7 7.4
2015-Jul-20 14:33N 55°31' E 012°35'1010.3
2015-Jul-20 13:34N 55°28' E 012°17'3 3.1
2015-Jul-20 12:32N 55°27' E 012°12'0 0.0
2015-Jul-20 11:32N 55°27' E 012°12'0 0.0
2015-Jul-20 10:32N 55°27' E 012°12'0 0.0
2015-Jul-20 09:32N 55°27' E 012°12'0 0.0
2015-Jul-20 08:32N 55°27' E 012°12'0 0.0
2015-Jul-20 07:32N 55°27' E 012°12'0 0.0
2015-Jul-20 06:32N 55°27' E 012°12'0 0.0
2015-Jul-20 05:32N 55°27' E 012°12'0 0.0
2015-Jul-20 04:32N 55°27' E 012°12'0 0.0
2015-Jul-20 03:32N 55°27' E 012°12'0 0.0
2015-Jul-20 02:32N 55°27' E 012°12'0 0.0
2015-Jul-20 01:32N 55°27' E 012°12'0 0.0
2015-Jul-20 00:32N 55°27' E 012°12'0 0.0
2015-Jul-19 23:32N 55°27' E 012°12'0 0.0
2015-Jul-19 22:32N 55°27' E 012°12'0 0.0
2015-Jul-19 21:32N 55°27' E 012°12'0 0.0
2015-Jul-19 20:32N 55°27' E 012°12'2 1.6
2015-Jul-19 19:33N 55°28' E 012°15'9 8.5
2015-Jul-19 18:33N 55°30' E 012°29'8 8.1
2015-Jul-19 17:33N 55°33' E 012°42'8 8.1
2015-Jul-19 16:33N 55°41' E 012°41'9 8.5
2015-Jul-19 15:33N 55°50' E 012°40'8 8.1
2015-Jul-19 14:34N 55°58' E 012°37'8 7.7
2015-Jul-19 13:33N 56°05' E 012°35'9 9.4
2015-Jul-19 12:33N 56°11' E 012°21'28 8.9
2015-Jul-19 09:25N 56°35' E 011°56'8 9.0
2015-Jul-19 08:33N 56°43' E 011°53'9 9.4
2015-Jul-19 07:33N 56°52' E 011°48'9 9.3
2015-Jul-19 06:33N 57°01' E 011°42'9 8.6
2015-Jul-19 05:33N 57°09' E 011°37'8 8.2
2015-Jul-19 04:33N 57°16' E 011°32'33 8.3
2015-Jul-19 00:33N 57°43' E 010°54'9 9.0
2015-Jul-18 23:32N 57°47' E 010°39'9 9.3
2015-Jul-18 22:33N 57°48' E 010°22'127 8.4
2015-Jul-18 07:31N 58°08' E 006°26'7 7.3
2015-Jul-18 06:33N 58°12' E 006°16'8 8.2
2015-Jul-18 05:33N 58°17' E 006°04'10 9.5
2015-Jul-18 04:33N 58°23' E 005°50'9 9.0
2015-Jul-18 03:33N 58°29' E 005°37'11 8.5
2015-Jul-18 02:17N 58°37' E 005°24'6 8.9
2015-Jul-18 01:33N 58°43' E 005°17'9 9.2
2015-Jul-18 00:33N 58°51' E 005°08'9 8.9
2015-Jul-17 23:33N 58°59' E 004°59'9 8.6
2015-Jul-17 22:33N 59°06' E 004°51'8 8.1
2015-Jul-17 21:32N 59°13' E 004°42'7 7.2
2015-Jul-17 20:32N 59°20' E 004°40'8 7.4
2015-Jul-17 19:23N 59°29' E 004°40'  
Track history (hours):
 
Tides and Currents Weather Stations Pressure Air Temp Water Temp Dewpoint Dewpoint Depression Visibility Wind Speed Wind Dir Waves Ship Positions

Haukur

Last reported at 2015-Jul-26 06:25 UTC. Time now 2015-Aug-05 10:29 UTC.
Position N 58°14' E 005°47'.
Warning: this ship's position is 10 days out of date.

Length 75 m; draft 5.6 m.

Type: Cargo ship. MMSI: 231812000.

Date/timePositionNaut miles runAvg speedWind from/ knotsBaromVisibWave heightAir tempDewpointWater temp
2015-Jul-26 06:25N 58°14' E 005°47'5 5.7
2015-Jul-26 05:33N 58°12' E 005°56'6 5.6
2015-Jul-26 04:33N 58°10' E 006°06'6 6.1
2015-Jul-26 03:33N 58°07' E 006°16'7 6.7
2015-Jul-26 02:32N 58°04' E 006°27'121 8.5
2015-Jul-25 12:20N 57°49' E 010°14'6 8.3
2015-Jul-25 11:33N 57°49' E 010°26'8 8.3
2015-Jul-25 10:33N 57°49' E 010°42'7 7.2
2015-Jul-25 09:33N 57°42' E 010°47'8 8.5
2015-Jul-25 08:33N 57°34' E 010°45'9 9.0
2015-Jul-25 07:33N 57°25' E 010°44'1010.1
2015-Jul-25 06:33N 57°15' E 010°43'11 9.8
2015-Jul-25 05:29N 57°05' E 010°49'33 8.3
2015-Jul-25 01:32N 56°33' E 011°05'27 8.9
2015-Jul-24 22:33N 56°06' E 011°07'18 8.4
2015-Jul-24 20:26N 55°51' E 010°51'8 8.9
2015-Jul-24 19:33N 55°46' E 010°40'9 8.9
2015-Jul-24 18:32N 55°43' E 010°25'  
2015-Jul-20 22:07N 56°08' E 011°38'710.7
2015-Jul-20 21:31N 56°09' E 011°49'1010.2
2015-Jul-20 20:33N 56°11' E 012°07'9 9.5
2015-Jul-20 19:33N 56°11' E 012°24'9 9.5
2015-Jul-20 18:34N 56°05' E 012°37'10 9.6
2015-Jul-20 17:34N 55°56' E 012°44'10 9.7
2015-Jul-20 16:33N 55°46' E 012°42'10 9.6
2015-Jul-20 15:34N 55°37' E 012°42'7 7.4
2015-Jul-20 14:33N 55°31' E 012°35'1010.3
2015-Jul-20 13:34N 55°28' E 012°17'3 3.1
2015-Jul-20 12:32N 55°27' E 012°12'0 0.0
2015-Jul-20 11:32N 55°27' E 012°12'0 0.0
2015-Jul-20 10:32N 55°27' E 012°12'0 0.0
2015-Jul-20 09:32N 55°27' E 012°12'0 0.0
2015-Jul-20 08:32N 55°27' E 012°12'0 0.0
2015-Jul-20 07:32N 55°27' E 012°12'0 0.0
2015-Jul-20 06:32N 55°27' E 012°12'0 0.0
2015-Jul-20 05:32N 55°27' E 012°12'0 0.0
2015-Jul-20 04:32N 55°27' E 012°12'0 0.0
2015-Jul-20 03:32N 55°27' E 012°12'0 0.0
2015-Jul-20 02:32N 55°27' E 012°12'0 0.0
2015-Jul-20 01:32N 55°27' E 012°12'0 0.0
2015-Jul-20 00:32N 55°27' E 012°12'0 0.0
2015-Jul-19 23:32N 55°27' E 012°12'0 0.0
2015-Jul-19 22:32N 55°27' E 012°12'0 0.0
2015-Jul-19 21:32N 55°27' E 012°12'0 0.0
2015-Jul-19 20:32N 55°27' E 012°12'2 1.6
2015-Jul-19 19:33N 55°28' E 012°15'9 8.5
2015-Jul-19 18:33N 55°30' E 012°29'8 8.1
2015-Jul-19 17:33N 55°33' E 012°42'8 8.1
2015-Jul-19 16:33N 55°41' E 012°41'9 8.5
2015-Jul-19 15:33N 55°50' E 012°40'8 8.1
2015-Jul-19 14:34N 55°58' E 012°37'8 7.7
2015-Jul-19 13:33N 56°05' E 012°35'9 9.4
2015-Jul-19 12:33N 56°11' E 012°21'28 8.9
2015-Jul-19 09:25N 56°35' E 011°56'8 9.0
2015-Jul-19 08:33N 56°43' E 011°53'9 9.4
2015-Jul-19 07:33N 56°52' E 011°48'9 9.3
2015-Jul-19 06:33N 57°01' E 011°42'9 8.6
2015-Jul-19 05:33N 57°09' E 011°37'8 8.2
2015-Jul-19 04:33N 57°16' E 011°32'33 8.3
2015-Jul-19 00:33N 57°43' E 010°54'9 9.0
2015-Jul-18 23:32N 57°47' E 010°39'9 9.3
2015-Jul-18 22:33N 57°48' E 010°22'127 8.4
2015-Jul-18 07:31N 58°08' E 006°26'7 7.3
2015-Jul-18 06:33N 58°12' E 006°16'8 8.2
2015-Jul-18 05:33N 58°17' E 006°04'10 9.5
2015-Jul-18 04:33N 58°23' E 005°50'9 9.0
2015-Jul-18 03:33N 58°29' E 005°37'11 8.5
2015-Jul-18 02:17N 58°37' E 005°24'6 8.9
2015-Jul-18 01:33N 58°43' E 005°17'9 9.2
2015-Jul-18 00:33N 58°51' E 005°08'9 8.9
2015-Jul-17 23:33N 58°59' E 004°59'9 8.6
2015-Jul-17 22:33N 59°06' E 004°51'8 8.1
2015-Jul-17 21:32N 59°13' E 004°42'7 7.2
2015-Jul-17 20:32N 59°20' E 004°40'8 7.4
2015-Jul-17 19:23N 59°29' E 004°40'  

Dump ship's entire track history